createdAt,value
2023-05-10T00:00:55.520Z,202.79
2023-05-10T00:01:56.387Z,203.25
2023-05-10T00:02:55.677Z,204.22
2023-05-10T00:03:55.740Z,204.66
2023-05-10T00:04:55.750Z,204.95
2023-05-10T00:05:55.796Z,204.97
2023-05-10T00:06:55.855Z,206.72
2023-05-10T00:07:55.881Z,206.59
2023-05-10T00:08:55.915Z,206.76
2023-05-10T00:09:55.945Z,206.24
2023-05-10T00:10:55.990Z,207.36
2023-05-10T00:11:56.049Z,207.84
2023-05-10T00:12:56.162Z,208.19
2023-05-10T00:13:56.133Z,207.43
2023-05-10T00:14:56.174Z,208.12
2023-05-10T00:15:56.230Z,207.04
2023-05-10T00:16:56.300Z,207.18
2023-05-10T00:17:56.352Z,207.35
2023-05-10T00:18:56.397Z,206.80
2023-05-10T00:19:56.451Z,208.59
2023-05-10T00:20:56.455Z,208.42
2023-05-10T00:21:56.532Z,208.12
2023-05-10T00:22:56.581Z,208.68
2023-05-10T00:23:56.598Z,208.12
2023-05-10T00:24:56.692Z,209.07
2023-05-10T00:25:56.725Z,209.44
2023-05-10T00:26:56.725Z,208.75
2023-05-10T00:27:56.823Z,208.91
2023-05-10T00:28:56.820Z,207.91
2023-05-10T00:29:56.885Z,208.76
2023-05-10T00:30:56.941Z,209.54
2023-05-10T00:31:57.034Z,210.30
2023-05-10T00:32:57.072Z,209.86
2023-05-10T00:33:57.051Z,211.06
2023-05-10T00:34:57.121Z,211.31
2023-05-10T00:35:57.147Z,209.96
2023-05-10T00:36:57.243Z,210.77
2023-05-10T00:37:57.295Z,212.05
2023-05-10T00:38:57.329Z,210.45
2023-05-10T00:39:57.351Z,210.11
2023-05-10T00:40:57.415Z,210.40
2023-05-10T00:41:57.452Z,211.80
2023-05-10T00:42:57.490Z,212.18
2023-05-10T00:43:57.542Z,212.01
2023-05-10T00:44:57.606Z,210.80
2023-05-10T00:45:57.657Z,209.66
2023-05-10T00:46:57.645Z,207.94
2023-05-10T00:47:57.708Z,207.73
2023-05-10T00:48:57.771Z,206.01
2023-05-10T00:49:57.805Z,206.99
2023-05-10T00:50:57.836Z,206.95
2023-05-10T00:51:57.902Z,206.62
2023-05-10T00:52:57.943Z,207.12
2023-05-10T00:53:57.973Z,208.02
2023-05-10T00:54:58.022Z,207.43
2023-05-10T00:55:58.096Z,207.29
2023-05-10T00:56:58.147Z,209.55
2023-05-10T00:57:58.206Z,207.90
2023-05-10T00:58:58.224Z,208.60
2023-05-10T00:59:58.263Z,211.24
2023-05-10T01:00:58.334Z,214.27
2023-05-10T01:01:58.350Z,215.83
2023-05-10T01:02:58.480Z,215.87
2023-05-10T01:03:58.432Z,211.27
2023-05-10T01:04:58.485Z,208.39
2023-05-10T01:05:58.535Z,208.50
2023-05-10T01:06:58.550Z,207.95
2023-05-10T01:07:58.596Z,208.18
2023-05-10T01:08:58.655Z,208.53
2023-05-10T01:09:58.699Z,209.80
2023-05-10T01:10:58.708Z,211.06
2023-05-10T01:11:58.813Z,212.72
2023-05-10T01:12:58.814Z,214.16
2023-05-10T01:13:58.851Z,216.22
2023-05-10T01:14:58.890Z,216.61
2023-05-10T01:15:58.963Z,215.96
2023-05-10T01:16:59.001Z,216.91
2023-05-10T01:17:59.053Z,216.17
2023-05-10T01:18:59.066Z,215.35
2023-05-10T01:19:59.040Z,215.14
2023-05-10T01:20:59.079Z,215.66
2023-05-10T01:21:59.125Z,216.22
2023-05-10T01:22:59.159Z,217.90
2023-05-10T01:23:59.177Z,221.97
2023-05-10T01:24:59.194Z,226.33
2023-05-10T01:25:59.243Z,229.38
2023-05-10T01:26:59.301Z,231.20
2023-05-10T01:27:59.343Z,233.12
2023-05-10T01:28:59.367Z,234.81
2023-05-10T01:30:14.243Z,236.39
2023-05-10T01:31:00.364Z,236.48
2023-05-10T01:31:59.351Z,236.97
2023-05-10T01:32:59.333Z,237.81
2023-05-10T01:33:59.302Z,239.52
2023-05-10T01:34:59.282Z,242.11
2023-05-10T01:35:59.250Z,243.31
2023-05-10T01:36:59.250Z,242.97
2023-05-10T01:37:59.242Z,243.55
2023-05-10T01:38:59.190Z,243.92
2023-05-10T01:39:59.189Z,244.95
2023-05-10T01:40:59.170Z,245.50
2023-05-10T01:41:59.145Z,245.37
2023-05-10T01:42:59.149Z,245.69
2023-05-10T01:43:59.127Z,246.26
2023-05-10T01:44:59.097Z,246.55
2023-05-10T01:45:59.067Z,246.55
2023-05-10T01:46:59.174Z,247.38
2023-05-10T01:47:59.079Z,247.52
2023-05-10T01:48:59.001Z,247.11
2023-05-10T01:49:58.999Z,248.20
2023-05-10T01:50:59.010Z,247.85
2023-05-10T01:51:59.046Z,248.54
2023-05-10T01:52:59.077Z,248.89
2023-05-10T01:53:59.054Z,246.33
2023-05-10T01:54:59.080Z,243.24
2023-05-10T01:55:59.052Z,243.13
2023-05-10T01:56:59.087Z,244.86
2023-05-10T01:57:59.082Z,246.06
2023-05-10T01:58:59.086Z,244.63
2023-05-10T01:59:59.096Z,243.10
2023-05-10T02:00:59.103Z,241.84
2023-05-10T02:01:59.091Z,244.65
2023-05-10T02:02:59.118Z,245.33
2023-05-10T02:03:59.126Z,243.68
2023-05-10T02:04:59.109Z,242.57
2023-05-10T02:05:59.109Z,242.43
2023-05-10T02:06:59.092Z,244.70
2023-05-10T02:07:59.099Z,243.81
2023-05-10T02:08:59.087Z,243.93
2023-05-10T02:09:59.098Z,243.80
2023-05-10T02:10:59.107Z,243.37
2023-05-10T02:11:59.084Z,244.52
2023-05-10T02:12:59.126Z,244.67
2023-05-10T02:13:59.092Z,245.14
2023-05-10T02:14:59.100Z,245.56
2023-05-10T02:15:59.123Z,245.13
2023-05-10T02:16:59.257Z,242.27
2023-05-10T02:17:59.228Z,236.88
2023-05-10T02:18:59.134Z,234.90
2023-05-10T02:19:59.130Z,232.32
2023-05-10T02:20:59.134Z,230.57
2023-05-10T02:21:59.143Z,227.10
2023-05-10T02:22:59.195Z,223.82
2023-05-10T02:23:59.167Z,221.72
2023-05-10T02:24:59.182Z,223.68
2023-05-10T02:25:59.194Z,226.90
2023-05-10T02:26:59.223Z,227.27
2023-05-10T02:27:59.225Z,229.53
2023-05-10T02:28:59.230Z,230.14
2023-05-10T02:29:59.242Z,229.07
2023-05-10T02:30:59.246Z,229.72
2023-05-10T02:31:59.289Z,228.89
2023-05-10T02:32:59.310Z,227.26
2023-05-10T02:33:59.269Z,226.45
2023-05-10T02:34:59.286Z,224.54
2023-05-10T02:35:59.299Z,225.59
2023-05-10T02:36:59.293Z,224.69
2023-05-10T02:37:59.332Z,221.17
2023-05-10T02:38:59.348Z,218.71
2023-05-10T02:39:59.319Z,216.10
2023-05-10T02:40:59.370Z,213.03
2023-05-10T02:41:59.378Z,209.80
2023-05-10T02:42:59.414Z,210.07
2023-05-10T02:43:59.426Z,209.69
2023-05-10T02:44:59.424Z,207.87
2023-05-10T02:45:59.465Z,208.11
2023-05-10T02:46:59.472Z,208.70
2023-05-10T02:47:59.579Z,211.70
2023-05-10T02:48:59.539Z,216.14
2023-05-10T02:49:59.556Z,217.05
2023-05-10T02:50:59.565Z,216.92
2023-05-10T02:51:59.605Z,214.78
2023-05-10T02:52:59.611Z,211.65
2023-05-10T02:53:59.648Z,213.78
2023-05-10T02:54:59.684Z,215.79
2023-05-10T02:55:59.694Z,213.69
2023-05-10T02:56:59.738Z,211.02
2023-05-10T02:57:59.774Z,209.80
2023-05-10T02:58:59.828Z,210.55
2023-05-10T02:59:59.825Z,210.76
2023-05-10T03:00:59.873Z,211.59
2023-05-10T03:01:59.875Z,212.64
2023-05-10T03:02:59.952Z,212.62
2023-05-10T03:03:59.923Z,212.75
2023-05-10T03:05:00.006Z,214.39
2023-05-10T03:05:59.974Z,216.24
2023-05-10T03:07:00.225Z,219.66
2023-05-10T03:07:59.992Z,222.78
2023-05-10T03:08:59.971Z,223.75
2023-05-10T03:09:59.988Z,224.48
2023-05-10T03:10:59.964Z,223.57
2023-05-10T03:11:59.975Z,224.33
2023-05-10T03:13:00.098Z,224.57
2023-05-10T03:14:00.014Z,225.81
2023-05-10T03:15:00.055Z,227.66
2023-05-10T03:16:00.082Z,228.15
2023-05-10T03:17:00.029Z,226.27
2023-05-10T03:18:00.115Z,225.67
2023-05-10T03:19:00.145Z,228.17
2023-05-10T03:20:00.127Z,230.53
2023-05-10T03:21:00.114Z,232.65
2023-05-10T03:22:00.164Z,234.89
2023-05-10T03:23:00.141Z,237.79
2023-05-10T03:24:00.201Z,238.69
2023-05-10T03:25:00.156Z,238.24
2023-05-10T03:26:00.153Z,238.88
2023-05-10T03:27:00.174Z,240.24
2023-05-10T03:28:00.202Z,239.69
2023-05-10T03:29:00.147Z,240.83
2023-05-10T03:30:00.206Z,241.14
2023-05-10T03:31:00.241Z,243.15
2023-05-10T03:32:00.151Z,243.94
2023-05-10T03:33:00.233Z,244.75
2023-05-10T03:34:00.163Z,245.57
2023-05-10T03:35:00.175Z,246.61
2023-05-10T03:36:00.163Z,247.10
2023-05-10T03:37:00.176Z,247.27
2023-05-10T03:38:00.135Z,248.94
2023-05-10T03:39:00.172Z,249.37
2023-05-10T03:40:00.179Z,248.95
2023-05-10T03:41:00.116Z,248.59
2023-05-10T03:42:00.155Z,247.84
2023-05-10T03:43:00.163Z,247.96
2023-05-10T03:44:00.127Z,246.45
2023-05-10T03:45:00.142Z,244.94
2023-05-10T03:46:00.146Z,239.26
2023-05-10T03:47:00.211Z,233.69
2023-05-10T03:48:00.184Z,228.67
2023-05-10T03:49:00.142Z,225.92
2023-05-10T03:50:00.402Z,219.81
2023-05-10T03:51:00.128Z,217.41
2023-05-10T03:52:00.167Z,218.38
2023-05-10T03:53:00.171Z,217.60
2023-05-10T03:54:00.195Z,215.08
2023-05-10T03:55:00.201Z,215.16
2023-05-10T03:56:00.185Z,214.67
2023-05-10T03:57:00.269Z,216.04
2023-05-10T03:58:00.220Z,215.93
2023-05-10T03:59:00.238Z,215.99
2023-05-10T04:00:00.267Z,215.06
2023-05-10T04:01:00.294Z,214.58
2023-05-10T04:02:00.383Z,212.68
2023-05-10T04:03:00.435Z,212.38
2023-05-10T04:04:00.375Z,211.65
2023-05-10T04:05:00.335Z,209.46
2023-05-10T04:06:00.377Z,206.81
2023-05-10T04:07:00.424Z,209.55
2023-05-10T04:08:00.462Z,212.55
2023-05-10T04:09:00.431Z,212.84
2023-05-10T04:10:00.480Z,215.10
2023-05-10T04:11:00.519Z,217.74
2023-05-10T04:12:00.537Z,219.43
2023-05-10T04:13:00.590Z,220.36
2023-05-10T04:14:00.567Z,222.29
2023-05-10T04:15:00.573Z,220.85
2023-05-10T04:16:00.597Z,220.84
2023-05-10T04:17:00.619Z,216.33
2023-05-10T04:18:00.648Z,212.40
2023-05-10T04:19:00.643Z,211.64
2023-05-10T04:20:00.631Z,209.53
2023-05-10T04:21:00.667Z,214.21
2023-05-10T04:22:00.691Z,215.87
2023-05-10T04:23:00.704Z,216.66
2023-05-10T04:24:00.685Z,216.72
2023-05-10T04:25:00.736Z,216.59
2023-05-10T04:26:00.732Z,214.08
2023-05-10T04:27:00.778Z,212.83
2023-05-10T04:28:00.787Z,215.27
2023-05-10T04:29:00.806Z,216.65
2023-05-10T04:30:00.797Z,221.32
2023-05-10T04:31:00.818Z,222.25
2023-05-10T04:32:00.819Z,219.55
2023-05-10T04:33:00.884Z,219.21
2023-05-10T04:34:00.842Z,220.61
2023-05-10T04:35:00.857Z,222.46
2023-05-10T04:36:00.828Z,220.76
2023-05-10T04:37:00.874Z,220.85
2023-05-10T04:38:00.881Z,222.15
2023-05-10T04:39:00.871Z,221.56
2023-05-10T04:40:00.885Z,222.55
2023-05-10T04:41:00.887Z,226.22
2023-05-10T04:42:00.908Z,226.80
2023-05-10T04:43:00.895Z,224.55
2023-05-10T04:44:00.909Z,225.62
2023-05-10T04:45:00.906Z,225.33
2023-05-10T04:46:00.922Z,228.61
2023-05-10T04:47:00.892Z,226.65
2023-05-10T04:48:00.939Z,221.02
2023-05-10T04:49:00.935Z,220.78
2023-05-10T04:50:00.910Z,222.99
2023-05-10T04:51:00.956Z,222.00
2023-05-10T04:52:00.932Z,220.78
2023-05-10T04:53:00.927Z,218.37
2023-05-10T04:54:06.656Z,217.94
2023-05-10T04:55:01.898Z,217.95
2023-05-10T04:56:00.869Z,216.70
2023-05-10T04:57:00.853Z,215.92
2023-05-10T04:58:00.843Z,212.32
2023-05-10T04:59:00.803Z,212.43
2023-05-10T05:00:00.758Z,214.43
2023-05-10T05:01:07.730Z,215.16
2023-05-10T05:02:00.831Z,215.18
2023-05-10T05:03:00.754Z,214.66
2023-05-10T05:04:00.831Z,209.80
2023-05-10T05:05:01.481Z,208.07
2023-05-10T05:06:00.631Z,210.04
2023-05-10T05:07:00.609Z,213.77
2023-05-10T05:08:00.610Z,214.31
2023-05-10T05:09:00.586Z,212.26
2023-05-10T05:10:00.548Z,210.29
2023-05-10T05:11:00.546Z,211.17
2023-05-10T05:12:00.496Z,209.59
2023-05-10T05:13:00.569Z,208.70
2023-05-10T05:14:00.501Z,207.31
2023-05-10T05:15:00.458Z,207.25
2023-05-10T05:16:00.432Z,210.88
2023-05-10T05:17:00.399Z,210.85
2023-05-10T05:18:00.367Z,208.58
2023-05-10T05:19:00.338Z,207.78
2023-05-10T05:20:00.317Z,207.49
2023-05-10T05:21:00.293Z,208.53
2023-05-10T05:22:00.335Z,208.85
2023-05-10T05:23:00.235Z,209.84
2023-05-10T05:24:00.208Z,209.31
2023-05-10T05:25:00.161Z,209.43
2023-05-10T05:26:00.151Z,210.80
2023-05-10T05:27:00.178Z,210.36
2023-05-10T05:28:00.139Z,212.14
2023-05-10T05:29:00.096Z,215.77
2023-05-10T05:30:00.053Z,216.10
2023-05-10T05:31:00.068Z,216.10
2023-05-10T05:32:00.302Z,217.28
2023-05-10T05:33:00.025Z,225.99
2023-05-10T05:34:00.017Z,235.23
2023-05-10T05:34:59.973Z,237.72
2023-05-10T05:35:59.889Z,239.53
2023-05-10T05:36:59.884Z,242.01
2023-05-10T05:37:59.851Z,247.88
2023-05-10T05:39:00.005Z,250.40
2023-05-10T05:39:59.796Z,250.60
2023-05-10T05:40:59.832Z,250.00
2023-05-10T05:41:59.866Z,250.00
2023-05-10T05:43:00.517Z,250.00
2023-05-10T05:44:00.047Z,249.37
2023-05-10T05:44:59.923Z,247.15
2023-05-10T05:46:07.048Z,248.29
2023-05-10T05:46:59.918Z,248.41
2023-05-10T05:47:59.931Z,248.37
2023-05-10T05:49:00.125Z,246.31
2023-05-10T05:49:59.832Z,243.53
2023-05-10T05:50:59.832Z,243.84
2023-05-10T05:51:59.785Z,244.58
2023-05-10T05:52:59.792Z,249.10
2023-05-10T05:54:00.093Z,245.46
2023-05-10T05:54:59.697Z,242.93
2023-05-10T05:55:59.687Z,235.69
2023-05-10T05:57:01.192Z,242.21
2023-05-10T05:57:59.690Z,250.16
2023-05-10T05:58:59.596Z,249.89
2023-05-10T05:59:59.570Z,240.05
2023-05-10T06:00:59.614Z,233.13
2023-05-10T06:01:59.604Z,225.21
2023-05-10T06:02:59.656Z,217.36
2023-05-10T06:03:59.571Z,217.89
2023-05-10T06:04:59.459Z,219.80
2023-05-10T06:05:59.497Z,222.80
2023-05-10T06:06:59.449Z,221.11
2023-05-10T06:07:59.434Z,219.28
2023-05-10T06:08:59.432Z,217.44
2023-05-10T06:09:59.379Z,217.84
2023-05-10T06:10:59.993Z,215.54
2023-05-10T06:11:59.396Z,217.34
2023-05-10T06:12:59.469Z,217.71
2023-05-10T06:13:59.518Z,215.94
2023-05-10T06:14:59.481Z,216.67
2023-05-10T06:15:59.523Z,216.84
2023-05-10T06:16:59.588Z,217.80
2023-05-10T06:17:59.677Z,215.06
2023-05-10T06:18:59.671Z,212.13
2023-05-10T06:19:59.775Z,210.47
2023-05-10T06:20:59.724Z,205.11
2023-05-10T06:22:00.592Z,206.61
2023-05-10T06:22:59.850Z,209.22
2023-05-10T06:23:59.837Z,206.94
2023-05-10T06:24:59.872Z,204.87
2023-05-10T06:25:59.896Z,208.02
2023-05-10T06:26:59.920Z,205.33
2023-05-10T06:27:59.949Z,199.97
2023-05-10T06:29:00.134Z,202.58
2023-05-10T06:30:11.832Z,207.62
2023-05-10T06:31:01.091Z,207.81
2023-05-10T06:32:00.027Z,208.71
2023-05-10T06:33:00.060Z,210.56
2023-05-10T06:33:59.959Z,214.41
2023-05-10T06:34:59.971Z,216.98
2023-05-10T06:35:59.927Z,218.04
2023-05-10T06:36:59.911Z,219.89
2023-05-10T06:37:59.905Z,219.17
2023-05-10T06:38:59.913Z,219.60
2023-05-10T06:39:59.887Z,214.65
2023-05-10T06:40:59.915Z,210.53
2023-05-10T06:41:59.990Z,213.34
2023-05-10T06:43:00.133Z,215.15
2023-05-10T06:44:00.168Z,213.80
2023-05-10T06:45:00.267Z,208.09
2023-05-10T06:46:00.281Z,206.81
2023-05-10T06:47:00.280Z,208.44
2023-05-10T06:48:00.374Z,209.76
2023-05-10T06:49:00.358Z,209.37
2023-05-10T06:50:00.803Z,206.41
2023-05-10T06:51:00.437Z,208.55
2023-05-10T06:52:00.497Z,207.14
2023-05-10T06:53:00.506Z,207.75
2023-05-10T06:54:00.612Z,209.16
2023-05-10T06:55:00.642Z,209.67
2023-05-10T06:56:00.706Z,209.42
2023-05-10T06:57:01.843Z,208.94
2023-05-10T06:58:00.793Z,206.69
2023-05-10T06:59:00.816Z,208.14
2023-05-10T07:00:00.984Z,209.81
2023-05-10T07:01:00.955Z,207.27
2023-05-10T07:02:01.033Z,206.74
2023-05-10T07:03:01.081Z,210.76
2023-05-10T07:04:01.061Z,207.57
2023-05-10T07:05:03.210Z,200.36
2023-05-10T07:06:01.203Z,197.22
2023-05-10T07:07:01.269Z,195.85
2023-05-10T07:08:01.322Z,194.70
2023-05-10T07:09:01.404Z,186.21
2023-05-10T07:10:01.394Z,188.65
2023-05-10T07:11:01.460Z,189.16
2023-05-10T07:12:01.507Z,179.61
2023-05-10T07:13:01.643Z,177.07
2023-05-10T07:14:01.565Z,178.48
2023-05-10T07:15:01.602Z,176.55
2023-05-10T07:16:01.662Z,170.26
2023-05-10T07:17:01.738Z,166.47
2023-05-10T07:18:01.908Z,164.84
2023-05-10T07:19:01.819Z,167.31
2023-05-10T07:20:01.804Z,169.67
2023-05-10T07:21:01.922Z,169.19
2023-05-10T07:22:01.943Z,172.60
2023-05-10T07:23:01.998Z,169.95
2023-05-10T07:24:02.062Z,170.06
2023-05-10T07:25:02.108Z,169.56
2023-05-10T07:26:02.086Z,167.48
2023-05-10T07:27:02.095Z,161.76
2023-05-10T07:28:02.162Z,156.75
2023-05-10T07:29:02.166Z,156.68
2023-05-10T07:30:02.578Z,158.08
2023-05-10T07:31:02.337Z,161.33
2023-05-10T07:32:02.360Z,163.41
2023-05-10T07:33:02.334Z,163.66
2023-05-10T07:34:02.325Z,163.11
2023-05-10T07:35:02.346Z,159.66
2023-05-10T07:36:02.310Z,153.55
2023-05-10T07:37:02.379Z,149.43
2023-05-10T07:38:02.359Z,150.03
2023-05-10T07:39:02.358Z,152.37
2023-05-10T07:40:02.346Z,151.50
2023-05-10T07:41:02.318Z,151.35
2023-05-10T07:42:02.319Z,153.23
2023-05-10T07:43:02.339Z,154.92
2023-05-10T07:44:02.360Z,154.33
2023-05-10T07:45:02.378Z,155.00
2023-05-10T07:46:02.402Z,155.59
2023-05-10T07:47:02.366Z,150.22
2023-05-10T07:48:02.443Z,150.37
2023-05-10T07:49:02.340Z,155.89
2023-05-10T07:50:02.341Z,156.44
2023-05-10T07:51:02.394Z,154.02
2023-05-10T07:52:02.349Z,147.69
2023-05-10T07:53:02.375Z,144.96
2023-05-10T07:54:02.383Z,141.82
2023-05-10T07:55:02.414Z,144.02
2023-05-10T07:56:02.427Z,147.20
2023-05-10T07:57:02.366Z,148.16
2023-05-10T07:58:02.396Z,145.05
2023-05-10T07:59:02.393Z,143.10
2023-05-10T08:00:02.585Z,142.97
2023-05-10T08:01:02.411Z,138.94
2023-05-10T08:02:02.424Z,137.01
2023-05-10T08:03:02.502Z,133.74
2023-05-10T08:04:02.736Z,136.79
2023-05-10T08:05:02.439Z,141.90
2023-05-10T08:06:02.420Z,145.15
2023-05-10T08:07:02.434Z,148.94
2023-05-10T08:08:02.451Z,146.66
2023-05-10T08:09:02.510Z,142.88
2023-05-10T08:10:02.480Z,139.46
2023-05-10T08:11:02.517Z,137.74
2023-05-10T08:12:02.531Z,136.15
2023-05-10T08:13:02.547Z,140.10
2023-05-10T08:14:02.571Z,142.33
2023-05-10T08:15:02.597Z,143.68
2023-05-10T08:16:02.630Z,146.47
2023-05-10T08:17:02.642Z,149.92
2023-05-10T08:18:02.714Z,151.45
2023-05-10T08:19:02.822Z,149.99
2023-05-10T08:20:02.705Z,151.92
2023-05-10T08:21:03.586Z,152.27
2023-05-10T08:22:02.737Z,155.02
2023-05-10T08:23:02.747Z,156.13
2023-05-10T08:24:02.721Z,161.45
2023-05-10T08:25:03.136Z,163.41
2023-05-10T08:26:02.783Z,163.80
2023-05-10T08:27:02.821Z,166.19
2023-05-10T08:28:02.827Z,178.14
2023-05-10T08:29:02.908Z,207.48
2023-05-10T08:30:02.952Z,214.43
2023-05-10T08:31:03.118Z,231.43
2023-05-10T08:32:02.895Z,230.41
2023-05-10T08:33:02.950Z,241.47
2023-05-10T08:34:02.933Z,245.61
2023-05-10T08:35:02.941Z,250.74
2023-05-10T08:36:02.954Z,249.56
2023-05-10T08:37:02.946Z,250.00
2023-05-10T08:38:02.955Z,248.16
2023-05-10T08:39:02.985Z,243.46
2023-05-10T08:40:03.003Z,244.60
2023-05-10T08:41:03.035Z,235.21
2023-05-10T08:42:03.054Z,228.74
2023-05-10T08:43:03.084Z,218.49
2023-05-10T08:44:03.189Z,222.08
2023-05-10T08:45:03.241Z,226.88
2023-05-10T08:46:03.299Z,229.62
2023-05-10T08:47:03.385Z,230.11
2023-05-10T08:48:03.380Z,232.62
2023-05-10T08:49:03.343Z,236.04
2023-05-10T08:50:03.412Z,236.07
2023-05-10T08:51:03.629Z,229.44
2023-05-10T08:52:03.462Z,215.87
2023-05-10T08:53:03.530Z,209.48
2023-05-10T08:54:03.588Z,205.28
2023-05-10T08:55:03.580Z,203.84
2023-05-10T08:56:03.643Z,203.84
2023-05-10T08:57:03.677Z,204.21
2023-05-10T08:58:03.672Z,201.68
2023-05-10T08:59:03.745Z,201.99
2023-05-10T09:00:03.751Z,201.46
2023-05-10T09:01:04.142Z,197.99
2023-05-10T09:02:03.849Z,197.37
2023-05-10T09:03:03.870Z,194.63
2023-05-10T09:04:03.885Z,193.51
2023-05-10T09:05:04.043Z,191.98
2023-05-10T09:06:04.122Z,205.98
2023-05-10T09:07:03.976Z,216.40
2023-05-10T09:08:04.040Z,223.41
2023-05-10T09:09:04.054Z,228.47
2023-05-10T09:10:04.116Z,231.43
2023-05-10T09:11:04.165Z,235.66
2023-05-10T09:12:04.116Z,235.89
2023-05-10T09:13:04.200Z,235.11
2023-05-10T09:14:04.162Z,233.83
2023-05-10T09:15:04.198Z,233.38
2023-05-10T09:16:19.802Z,232.84
2023-05-10T09:17:05.318Z,232.91
2023-05-10T09:18:04.190Z,233.09
2023-05-10T09:19:04.285Z,232.90
2023-05-10T09:20:04.127Z,232.87
2023-05-10T09:21:04.182Z,230.84
2023-05-10T09:22:04.160Z,228.21
2023-05-10T09:23:04.212Z,227.24
2023-05-10T09:24:04.208Z,225.77
2023-05-10T09:25:04.216Z,227.09
2023-05-10T09:26:04.633Z,227.25
2023-05-10T09:27:04.224Z,225.63
2023-05-10T09:28:04.246Z,223.52
2023-05-10T09:29:04.244Z,224.35
2023-05-10T09:30:04.276Z,223.93
2023-05-10T09:31:04.705Z,222.93
2023-05-10T09:32:04.261Z,224.30
2023-05-10T09:33:04.383Z,223.09
2023-05-10T09:34:04.338Z,224.89
2023-05-10T09:35:04.328Z,223.46
2023-05-10T09:36:04.348Z,223.17
2023-05-10T09:37:04.359Z,223.20
2023-05-10T09:38:04.365Z,224.02
2023-05-10T09:39:04.362Z,226.46
2023-05-10T09:40:04.391Z,227.29
2023-05-10T09:41:04.651Z,229.84
2023-05-10T09:42:04.405Z,232.89
2023-05-10T09:43:04.486Z,231.39
2023-05-10T09:44:04.393Z,232.14
2023-05-10T09:45:04.416Z,226.66
2023-05-10T09:46:04.415Z,230.12
2023-05-10T09:47:04.421Z,235.08
2023-05-10T09:48:04.439Z,223.59
2023-05-10T09:49:04.380Z,215.91
2023-05-10T09:50:04.397Z,220.88
2023-05-10T09:51:04.370Z,217.20
2023-05-10T09:52:04.356Z,216.36
2023-05-10T09:53:04.429Z,212.15
2023-05-10T09:54:04.365Z,210.59
2023-05-10T09:55:04.426Z,210.32
2023-05-10T09:56:04.442Z,208.80
2023-05-10T09:57:04.430Z,208.50
2023-05-10T09:58:04.418Z,203.96
2023-05-10T09:59:04.455Z,198.09
2023-05-10T10:00:04.489Z,196.93
2023-05-10T10:01:04.708Z,194.93
2023-05-10T10:02:04.586Z,194.73
2023-05-10T10:03:04.594Z,194.92
2023-05-10T10:04:04.558Z,196.20
2023-05-10T10:05:04.698Z,195.56
2023-05-10T10:06:04.631Z,198.42
2023-05-10T10:07:04.796Z,198.47
2023-05-10T10:08:04.699Z,198.05
2023-05-10T10:09:04.680Z,197.71
2023-05-10T10:10:04.750Z,196.42
2023-05-10T10:11:05.165Z,196.57
2023-05-10T10:12:04.797Z,193.26
2023-05-10T10:13:04.822Z,192.70
2023-05-10T10:14:04.827Z,190.43
2023-05-10T10:15:04.867Z,193.35
2023-05-10T10:16:05.831Z,191.70
2023-05-10T10:17:07.331Z,185.94
2023-05-10T10:18:04.925Z,181.79
2023-05-10T10:19:04.948Z,178.95
2023-05-10T10:20:04.871Z,176.41
2023-05-10T10:21:04.865Z,171.50
2023-05-10T10:22:05.649Z,163.22
2023-05-10T10:23:04.830Z,159.38
2023-05-10T10:24:04.847Z,154.29
2023-05-10T10:25:04.819Z,155.71
2023-05-10T10:26:04.810Z,165.38
2023-05-10T10:27:05.166Z,168.78
2023-05-10T10:28:04.772Z,163.53
2023-05-10T10:29:04.754Z,159.56
2023-05-10T10:30:04.756Z,157.10
2023-05-10T10:31:04.805Z,144.87
2023-05-10T10:32:04.735Z,129.82
2023-05-10T10:33:10.364Z,125.15
2023-05-10T10:34:05.737Z,125.29
2023-05-10T10:35:04.716Z,125.60
2023-05-10T10:36:04.757Z,125.67
2023-05-10T10:37:05.161Z,127.65
2023-05-10T10:38:04.725Z,126.05
2023-05-10T10:39:04.723Z,124.43
2023-05-10T10:40:04.693Z,121.91
2023-05-10T10:41:04.732Z,123.92
2023-05-10T10:42:05.164Z,132.78
2023-05-10T10:43:04.675Z,137.91
2023-05-10T10:44:04.685Z,142.67
2023-05-10T10:45:04.682Z,144.25
2023-05-10T10:46:04.658Z,141.01
2023-05-10T10:47:05.249Z,143.14
2023-05-10T10:48:04.741Z,143.80
2023-05-10T10:49:04.745Z,143.56
2023-05-10T10:50:04.687Z,141.67
2023-05-10T10:51:04.662Z,138.12
2023-05-10T10:52:04.684Z,137.69
2023-05-10T10:53:04.685Z,139.65
2023-05-10T10:54:04.665Z,141.79
2023-05-10T10:55:05.667Z,141.92
2023-05-10T10:56:04.694Z,167.10
2023-05-10T10:57:04.743Z,177.97
2023-05-10T10:58:04.720Z,171.69
2023-05-10T10:59:04.780Z,178.57
2023-05-10T11:00:04.791Z,179.31
2023-05-10T11:01:04.889Z,168.02
2023-05-10T11:02:04.849Z,165.51
2023-05-10T11:03:04.884Z,148.64
2023-05-10T11:04:04.960Z,133.61
2023-05-10T11:05:04.894Z,172.06
2023-05-10T11:06:04.958Z,166.64
2023-05-10T11:07:05.168Z,155.88
2023-05-10T11:08:04.967Z,145.34
2023-05-10T11:09:04.984Z,133.59
2023-05-10T11:10:05.026Z,126.42
2023-05-10T11:11:05.050Z,125.83
2023-05-10T11:12:05.067Z,126.78
2023-05-10T11:13:05.097Z,126.42
2023-05-10T11:14:05.105Z,129.15
2023-05-10T11:15:05.212Z,127.62
2023-05-10T11:16:05.144Z,128.28
2023-05-10T11:17:05.221Z,134.31
2023-05-10T11:18:05.261Z,129.31
2023-05-10T11:19:05.281Z,121.18
2023-05-10T11:20:05.255Z,123.99
2023-05-10T11:21:05.248Z,121.22
2023-05-10T11:22:05.694Z,163.00
2023-05-10T11:23:05.310Z,203.80
2023-05-10T11:24:05.291Z,211.92
2023-05-10T11:25:05.267Z,202.60
2023-05-10T11:26:05.337Z,195.80
2023-05-10T11:27:05.730Z,200.39
2023-05-10T11:28:05.322Z,207.35
2023-05-10T11:29:05.395Z,218.82
2023-05-10T11:30:05.351Z,223.87
2023-05-10T11:31:05.500Z,224.12
2023-05-10T11:32:05.498Z,218.80
2023-05-10T11:33:05.755Z,219.46
2023-05-10T11:34:05.537Z,225.23
2023-05-10T11:35:05.581Z,230.09
2023-05-10T11:36:05.603Z,238.02
2023-05-10T11:37:05.623Z,241.36
2023-05-10T11:38:05.718Z,237.66
2023-05-10T11:39:05.726Z,237.24
2023-05-10T11:40:05.724Z,228.58
2023-05-10T11:41:05.774Z,201.69
2023-05-10T11:42:05.827Z,190.00
2023-05-10T11:43:05.848Z,189.42
2023-05-10T11:44:05.895Z,190.48
2023-05-10T11:45:05.936Z,197.44
2023-05-10T11:46:05.988Z,204.44
2023-05-10T11:47:05.977Z,197.93
2023-05-10T11:48:06.072Z,193.00
2023-05-10T11:49:06.033Z,175.91
2023-05-10T11:50:06.054Z,163.22
2023-05-10T11:51:06.112Z,165.21
2023-05-10T11:52:06.162Z,172.03
2023-05-10T11:53:06.181Z,166.49
2023-05-10T11:54:06.214Z,158.57
2023-05-10T11:55:06.232Z,155.25
2023-05-10T11:56:06.330Z,159.21
2023-05-10T11:57:06.306Z,160.92
2023-05-10T11:58:06.356Z,152.06
2023-05-10T11:59:06.313Z,149.98
2023-05-10T12:00:06.376Z,140.67
2023-05-10T12:01:06.410Z,140.33
2023-05-10T12:02:06.427Z,138.50
2023-05-10T12:03:06.534Z,151.31
2023-05-10T12:04:06.615Z,159.08
2023-05-10T12:05:06.638Z,155.89
2023-05-10T12:06:06.572Z,158.81
2023-05-10T12:07:06.631Z,157.20
2023-05-10T12:08:06.662Z,165.76
2023-05-10T12:09:06.751Z,173.67
2023-05-10T12:10:06.746Z,178.02
2023-05-10T12:11:06.765Z,183.04
2023-05-10T12:12:06.815Z,185.69
2023-05-10T12:13:06.849Z,187.44
2023-05-10T12:14:06.905Z,188.09
2023-05-10T12:15:06.913Z,190.77
2023-05-10T12:16:06.976Z,191.58
2023-05-10T12:17:07.010Z,191.77
2023-05-10T12:18:07.069Z,191.83
2023-05-10T12:19:07.083Z,190.98
2023-05-10T12:20:07.105Z,192.59
2023-05-10T12:21:07.168Z,193.19
2023-05-10T12:22:07.169Z,194.25
2023-05-10T12:23:07.190Z,194.34
2023-05-10T12:24:07.306Z,193.97
2023-05-10T12:25:07.277Z,194.15
2023-05-10T12:26:07.360Z,194.80
2023-05-10T12:27:07.327Z,195.47
2023-05-10T12:28:07.439Z,191.91
2023-05-10T12:29:07.427Z,179.67